sensor_id;sensor_type;location;lat;lon;timestamp;P1;durP1;ratioP1;P2;durP2;ratioP2
18818;SDS011;9537;45.594;9.294;2022-12-18T00:00:31;16.07;;;12.13;;
18818;SDS011;9537;45.594;9.294;2022-12-18T00:01:34;16.97;;;12.27;;
18818;SDS011;9537;45.594;9.294;2022-12-18T00:02:36;15.87;;;10.50;;
18818;SDS011;9537;45.594;9.294;2022-12-18T00:03:38;14.67;;;11.30;;
18818;SDS011;9537;45.594;9.294;2022-12-18T00:04:40;16.83;;;11.30;;
18818;SDS011;9537;45.594;9.294;2022-12-18T00:05:48;16.13;;;10.87;;
18818;SDS011;9537;45.594;9.294;2022-12-18T00:06:50;12.57;;;10.43;;
18818;SDS011;9537;45.594;9.294;2022-12-18T00:07:52;16.87;;;12.10;;
18818;SDS011;9537;45.594;9.294;2022-12-18T00:08:55;17.03;;;11.27;;
18818;SDS011;9537;45.594;9.294;2022-12-18T00:09:57;15.53;;;11.40;;
18818;SDS011;9537;45.594;9.294;2022-12-18T00:11:04;16.70;;;12.10;;
18818;SDS011;9537;45.594;9.294;2022-12-18T00:12:06;15.33;;;11.93;;
18818;SDS011;9537;45.594;9.294;2022-12-18T00:13:09;14.67;;;11.30;;
18818;SDS011;9537;45.594;9.294;2022-12-18T00:14:12;16.13;;;11.90;;
18818;SDS011;9537;45.594;9.294;2022-12-18T00:15:14;15.23;;;11.80;;
18818;SDS011;9537;45.594;9.294;2022-12-18T00:16:16;18.10;;;12.23;;
18818;SDS011;9537;45.594;9.294;2022-12-18T00:17:21;17.17;;;11.33;;
18818;SDS011;9537;45.594;9.294;2022-12-18T00:18:22;14.20;;;11.80;;
18818;SDS011;9537;45.594;9.294;2022-12-18T00:19:24;14.13;;;10.07;;
18818;SDS011;9537;45.594;9.294;2022-12-18T00:20:25;14.07;;;10.73;;
18818;SDS011;9537;45.594;9.294;2022-12-18T00:21:28;14.50;;;10.73;;
18818;SDS011;9537;45.594;9.294;2022-12-18T00:22:29;14.80;;;10.10;;
18818;SDS011;9537;45.594;9.294;2022-12-18T00:23:32;13.10;;;10.23;;
18818;SDS011;9537;45.594;9.294;2022-12-18T00:24:34;12.63;;;10.50;;
18818;SDS011;9537;45.594;9.294;2022-12-18T00:25:36;13.33;;;10.77;;
18818;SDS011;9537;45.594;9.294;2022-12-18T00:26:39;18.17;;;10.47;;
18818;SDS011;9537;45.594;9.294;2022-12-18T00:27:41;14.77;;;11.13;;
18818;SDS011;9537;45.594;9.294;2022-12-18T00:28:42;12.87;;;10.53;;
18818;SDS011;9537;45.594;9.294;2022-12-18T00:29:44;16.03;;;10.70;;
18818;SDS011;9537;45.594;9.294;2022-12-18T00:30:46;11.87;;;9.97;;
18818;SDS011;9537;45.594;9.294;2022-12-18T00:31:47;12.30;;;9.53;;
18818;SDS011;9537;45.594;9.294;2022-12-18T00:32:49;9.67;;;8.07;;
18818;SDS011;9537;45.594;9.294;2022-12-18T00:33:50;9.37;;;7.87;;
18818;SDS011;9537;45.594;9.294;2022-12-18T00:34:52;10.10;;;8.33;;
18818;SDS011;9537;45.594;9.294;2022-12-18T00:35:53;11.23;;;8.80;;
18818;SDS011;9537;45.594;9.294;2022-12-18T00:36:55;10.43;;;8.57;;
18818;SDS011;9537;45.594;9.294;2022-12-18T00:37:56;11.27;;;8.27;;
18818;SDS011;9537;45.594;9.294;2022-12-18T00:38:59;11.23;;;9.40;;
18818;SDS011;9537;45.594;9.294;2022-12-18T00:40:02;11.10;;;8.53;;
18818;SDS011;9537;45.594;9.294;2022-12-18T00:41:04;14.83;;;8.93;;
18818;SDS011;9537;45.594;9.294;2022-12-18T00:42:08;12.07;;;8.53;;
18818;SDS011;9537;45.594;9.294;2022-12-18T00:43:29;10.67;;;8.70;;
18818;SDS011;9537;45.594;9.294;2022-12-18T00:44:30;9.60;;;8.33;;
18818;SDS011;9537;45.594;9.294;2022-12-18T00:45:32;13.30;;;8.60;;
18818;SDS011;9537;45.594;9.294;2022-12-18T00:46:33;10.93;;;9.10;;
18818;SDS011;9537;45.594;9.294;2022-12-18T00:47:35;12.83;;;9.60;;
18818;SDS011;9537;45.594;9.294;2022-12-18T00:48:36;10.93;;;8.90;;
18818;SDS011;9537;45.594;9.294;2022-12-18T00:49:38;10.33;;;8.30;;
18818;SDS011;9537;45.594;9.294;2022-12-18T00:50:39;9.27;;;8.00;;
18818;SDS011;9537;45.594;9.294;2022-12-18T00:51:41;9.70;;;8.70;;
18818;SDS011;9537;45.594;9.294;2022-12-18T00:52:42;11.40;;;8.33;;
18818;SDS011;9537;45.594;9.294;2022-12-18T00:53:44;8.43;;;7.53;;
18818;SDS011;9537;45.594;9.294;2022-12-18T00:54:45;9.17;;;8.10;;
18818;SDS011;9537;45.594;9.294;2022-12-18T00:55:47;8.77;;;7.33;;
18818;SDS011;9537;45.594;9.294;2022-12-18T00:56:48;9.17;;;8.17;;
18818;SDS011;9537;45.594;9.294;2022-12-18T00:57:52;8.73;;;7.83;;
18818;SDS011;9537;45.594;9.294;2022-12-18T00:58:53;9.53;;;8.07;;
18818;SDS011;9537;45.594;9.294;2022-12-18T00:59:55;9.10;;;7.67;;
18818;SDS011;9537;45.594;9.294;2022-12-18T01:00:56;9.07;;;7.60;;
18818;SDS011;9537;45.594;9.294;2022-12-18T01:01:58;8.87;;;7.50;;
18818;SDS011;9537;45.594;9.294;2022-12-18T01:02:59;8.30;;;7.20;;
18818;SDS011;9537;45.594;9.294;2022-12-18T01:04:02;9.20;;;8.17;;
18818;SDS011;9537;45.594;9.294;2022-12-18T01:05:04;9.90;;;8.10;;
18818;SDS011;9537;45.594;9.294;2022-12-18T01:06:07;11.83;;;9.33;;
18818;SDS011;9537;45.594;9.294;2022-12-18T01:07:10;11.03;;;9.47;;
18818;SDS011;9537;45.594;9.294;2022-12-18T01:08:12;15.57;;;11.70;;
18818;SDS011;9537;45.594;9.294;2022-12-18T01:09:13;13.67;;;10.13;;
18818;SDS011;9537;45.594;9.294;2022-12-18T01:10:15;15.37;;;11.10;;
18818;SDS011;9537;45.594;9.294;2022-12-18T01:11:17;15.10;;;11.07;;
18818;SDS011;9537;45.594;9.294;2022-12-18T01:12:20;12.23;;;10.20;;
18818;SDS011;9537;45.594;9.294;2022-12-18T01:13:22;12.83;;;10.20;;
18818;SDS011;9537;45.594;9.294;2022-12-18T01:14:24;15.83;;;11.03;;
18818;SDS011;9537;45.594;9.294;2022-12-18T01:15:25;15.97;;;11.43;;
18818;SDS011;9537;45.594;9.294;2022-12-18T01:16:27;14.97;;;12.20;;
18818;SDS011;9537;45.594;9.294;2022-12-18T01:17:28;14.47;;;11.13;;
18818;SDS011;9537;45.594;9.294;2022-12-18T01:18:30;16.97;;;11.83;;
18818;SDS011;9537;45.594;9.294;2022-12-18T01:19:31;13.73;;;10.47;;
18818;SDS011;9537;45.594;9.294;2022-12-18T01:20:34;14.10;;;10.83;;
18818;SDS011;9537;45.594;9.294;2022-12-18T01:21:35;15.50;;;11.77;;
18818;SDS011;9537;45.594;9.294;2022-12-18T01:22:37;13.57;;;10.83;;
18818;SDS011;9537;45.594;9.294;2022-12-18T01:23:38;14.77;;;12.43;;
18818;SDS011;9537;45.594;9.294;2022-12-18T01:24:40;16.33;;;11.87;;
18818;SDS011;9537;45.594;9.294;2022-12-18T01:25:41;15.30;;;11.93;;
18818;SDS011;9537;45.594;9.294;2022-12-18T01:26:43;16.60;;;12.23;;
18818;SDS011;9537;45.594;9.294;2022-12-18T01:27:44;17.87;;;12.27;;
18818;SDS011;9537;45.594;9.294;2022-12-18T01:28:48;15.67;;;12.27;;
18818;SDS011;9537;45.594;9.294;2022-12-18T01:29:49;12.70;;;10.63;;
18818;SDS011;9537;45.594;9.294;2022-12-18T01:30:51;14.13;;;11.40;;
18818;SDS011;9537;45.594;9.294;2022-12-18T01:31:54;16.07;;;12.80;;
18818;SDS011;9537;45.594;9.294;2022-12-18T01:32:57;13.73;;;11.23;;
18818;SDS011;9537;45.594;9.294;2022-12-18T01:34:00;15.80;;;12.37;;
18818;SDS011;9537;45.594;9.294;2022-12-18T01:35:03;14.77;;;10.97;;
18818;SDS011;9537;45.594;9.294;2022-12-18T01:36:05;14.60;;;11.23;;
18818;SDS011;9537;45.594;9.294;2022-12-18T01:37:08;11.47;;;9.90;;
18818;SDS011;9537;45.594;9.294;2022-12-18T01:38:09;14.47;;;11.03;;
18818;SDS011;9537;45.594;9.294;2022-12-18T01:39:12;12.87;;;10.30;;
18818;SDS011;9537;45.594;9.294;2022-12-18T01:40:14;17.40;;;10.70;;
18818;SDS011;9537;45.594;9.294;2022-12-18T01:41:18;16.43;;;12.07;;
18818;SDS011;9537;45.594;9.294;2022-12-18T01:42:20;12.43;;;10.60;;
18818;SDS011;9537;45.594;9.294;2022-12-18T01:43:39;14.43;;;10.90;;
18818;SDS011;9537;45.594;9.294;2022-12-18T01:44:56;14.83;;;11.57;;
18818;SDS011;9537;45.594;9.294;2022-12-18T01:46:00;14.17;;;10.50;;
18818;SDS011;9537;45.594;9.294;2022-12-18T01:47:01;12.50;;;10.23;;
18818;SDS011;9537;45.594;9.294;2022-12-18T01:48:04;15.23;;;11.00;;
18818;SDS011;9537;45.594;9.294;2022-12-18T01:49:09;14.77;;;11.33;;
18818;SDS011;9537;45.594;9.294;2022-12-18T01:50:11;17.13;;;11.73;;
18818;SDS011;9537;45.594;9.294;2022-12-18T01:51:15;16.83;;;11.07;;
18818;SDS011;9537;45.594;9.294;2022-12-18T01:52:18;16.67;;;11.33;;
18818;SDS011;9537;45.594;9.294;2022-12-18T01:53:21;15.70;;;11.73;;
18818;SDS011;9537;45.594;9.294;2022-12-18T01:54:25;14.57;;;10.57;;
18818;SDS011;9537;45.594;9.294;2022-12-18T01:55:26;14.70;;;10.93;;
18818;SDS011;9537;45.594;9.294;2022-12-18T01:56:32;15.60;;;11.93;;
18818;SDS011;9537;45.594;9.294;2022-12-18T01:57:33;15.00;;;10.20;;
18818;SDS011;9537;45.594;9.294;2022-12-18T01:58:38;14.83;;;10.90;;
18818;SDS011;9537;45.594;9.294;2022-12-18T01:59:42;15.23;;;12.13;;
18818;SDS011;9537;45.594;9.294;2022-12-18T02:00:46;13.90;;;10.70;;
18818;SDS011;9537;45.594;9.294;2022-12-18T02:01:48;16.20;;;11.77;;
18818;SDS011;9537;45.594;9.294;2022-12-18T02:02:51;14.20;;;10.83;;
18818;SDS011;9537;45.594;9.294;2022-12-18T02:03:53;15.97;;;11.50;;
18818;SDS011;9537;45.594;9.294;2022-12-18T02:04:55;14.30;;;11.07;;
18818;SDS011;9537;45.594;9.294;2022-12-18T02:05:58;14.40;;;11.50;;
18818;SDS011;9537;45.594;9.294;2022-12-18T02:07:07;15.37;;;10.93;;
18818;SDS011;9537;45.594;9.294;2022-12-18T02:08:16;14.60;;;11.53;;
18818;SDS011;9537;45.594;9.294;2022-12-18T02:09:23;14.87;;;10.93;;
18818;SDS011;9537;45.594;9.294;2022-12-18T02:10:33;16.47;;;11.33;;
18818;SDS011;9537;45.594;9.294;2022-12-18T02:11:44;17.80;;;12.27;;
18818;SDS011;9537;45.594;9.294;2022-12-18T02:12:53;16.33;;;12.23;;
18818;SDS011;9537;45.594;9.294;2022-12-18T02:14:04;17.40;;;11.93;;
18818;SDS011;9537;45.594;9.294;2022-12-18T02:15:16;18.00;;;12.73;;
18818;SDS011;9537;45.594;9.294;2022-12-18T02:16:28;15.93;;;11.77;;
18818;SDS011;9537;45.594;9.294;2022-12-18T02:17:37;14.90;;;11.60;;
18818;SDS011;9537;45.594;9.294;2022-12-18T02:18:46;15.80;;;12.13;;
18818;SDS011;9537;45.594;9.294;2022-12-18T02:19:55;18.53;;;12.60;;
18818;SDS011;9537;45.594;9.294;2022-12-18T02:21:08;16.07;;;11.40;;
18818;SDS011;9537;45.594;9.294;2022-12-18T02:22:22;15.27;;;11.53;;
18818;SDS011;9537;45.594;9.294;2022-12-18T02:23:37;14.00;;;10.60;;
18818;SDS011;9537;45.594;9.294;2022-12-18T02:24:50;15.80;;;11.10;;
18818;SDS011;9537;45.594;9.294;2022-12-18T02:26:07;13.50;;;10.77;;
18818;SDS011;9537;45.594;9.294;2022-12-18T02:27:24;18.57;;;10.77;;
18818;SDS011;9537;45.594;9.294;2022-12-18T02:28:30;13.17;;;10.20;;
18818;SDS011;9537;45.594;9.294;2022-12-18T02:29:36;13.80;;;10.97;;
18818;SDS011;9537;45.594;9.294;2022-12-18T02:30:40;17.03;;;10.97;;
18818;SDS011;9537;45.594;9.294;2022-12-18T02:31:45;15.27;;;10.90;;
18818;SDS011;9537;45.594;9.294;2022-12-18T02:32:52;14.30;;;10.30;;
18818;SDS011;9537;45.594;9.294;2022-12-18T02:33:56;13.67;;;10.83;;
18818;SDS011;9537;45.594;9.294;2022-12-18T02:35:02;14.17;;;10.57;;
18818;SDS011;9537;45.594;9.294;2022-12-18T02:36:06;15.33;;;10.60;;
18818;SDS011;9537;45.594;9.294;2022-12-18T02:37:11;13.97;;;10.50;;
18818;SDS011;9537;45.594;9.294;2022-12-18T02:38:15;12.73;;;10.77;;
18818;SDS011;9537;45.594;9.294;2022-12-18T02:39:19;12.63;;;10.03;;
18818;SDS011;9537;45.594;9.294;2022-12-18T02:40:23;13.57;;;10.40;;
18818;SDS011;9537;45.594;9.294;2022-12-18T02:41:29;13.93;;;11.03;;
18818;SDS011;9537;45.594;9.294;2022-12-18T02:42:31;14.53;;;10.87;;
18818;SDS011;9537;45.594;9.294;2022-12-18T02:43:33;15.50;;;10.33;;
18818;SDS011;9537;45.594;9.294;2022-12-18T02:44:35;16.20;;;11.47;;
18818;SDS011;9537;45.594;9.294;2022-12-18T02:45:46;14.10;;;10.70;;
18818;SDS011;9537;45.594;9.294;2022-12-18T02:46:50;13.60;;;10.27;;
18818;SDS011;9537;45.594;9.294;2022-12-18T02:47:54;13.57;;;10.00;;
18818;SDS011;9537;45.594;9.294;2022-12-18T02:48:57;15.07;;;10.80;;
18818;SDS011;9537;45.594;9.294;2022-12-18T02:50:08;17.30;;;12.13;;
18818;SDS011;9537;45.594;9.294;2022-12-18T02:51:17;14.60;;;10.63;;
18818;SDS011;9537;45.594;9.294;2022-12-18T02:52:28;14.40;;;11.40;;
18818;SDS011;9537;45.594;9.294;2022-12-18T02:53:36;13.70;;;11.33;;
18818;SDS011;9537;45.594;9.294;2022-12-18T02:54:52;17.53;;;12.57;;
18818;SDS011;9537;45.594;9.294;2022-12-18T02:56:01;14.80;;;11.03;;
18818;SDS011;9537;45.594;9.294;2022-12-18T02:57:11;15.70;;;11.20;;
18818;SDS011;9537;45.594;9.294;2022-12-18T02:58:18;15.87;;;11.57;;
18818;SDS011;9537;45.594;9.294;2022-12-18T02:59:30;14.07;;;11.37;;
18818;SDS011;9537;45.594;9.294;2022-12-18T03:00:37;16.50;;;11.03;;
18818;SDS011;9537;45.594;9.294;2022-12-18T03:01:46;14.80;;;11.00;;
18818;SDS011;9537;45.594;9.294;2022-12-18T03:02:53;16.20;;;11.73;;
18818;SDS011;9537;45.594;9.294;2022-12-18T03:04:04;13.73;;;10.50;;
18818;SDS011;9537;45.594;9.294;2022-12-18T03:05:11;15.87;;;11.57;;
18818;SDS011;9537;45.594;9.294;2022-12-18T03:06:18;15.50;;;11.50;;
18818;SDS011;9537;45.594;9.294;2022-12-18T03:07:26;16.03;;;10.80;;
18818;SDS011;9537;45.594;9.294;2022-12-18T03:08:41;14.70;;;10.87;;
18818;SDS011;9537;45.594;9.294;2022-12-18T03:09:46;15.07;;;11.17;;
18818;SDS011;9537;45.594;9.294;2022-12-18T03:10:54;15.33;;;11.07;;
18818;SDS011;9537;45.594;9.294;2022-12-18T03:12:02;15.47;;;10.90;;
18818;SDS011;9537;45.594;9.294;2022-12-18T03:13:27;17.67;;;11.20;;
18818;SDS011;9537;45.594;9.294;2022-12-18T03:14:32;14.80;;;11.30;;
18818;SDS011;9537;45.594;9.294;2022-12-18T03:15:39;13.63;;;10.67;;
18818;SDS011;9537;45.594;9.294;2022-12-18T03:16:44;15.57;;;11.40;;
18818;SDS011;9537;45.594;9.294;2022-12-18T03:17:49;14.30;;;11.13;;
18818;SDS011;9537;45.594;9.294;2022-12-18T03:18:57;15.03;;;10.67;;
18818;SDS011;9537;45.594;9.294;2022-12-18T03:20:03;15.60;;;10.70;;
18818;SDS011;9537;45.594;9.294;2022-12-18T03:21:07;14.53;;;11.03;;
18818;SDS011;9537;45.594;9.294;2022-12-18T03:22:11;14.93;;;11.33;;
18818;SDS011;9537;45.594;9.294;2022-12-18T03:23:15;14.40;;;10.77;;
18818;SDS011;9537;45.594;9.294;2022-12-18T03:24:22;14.50;;;11.00;;
18818;SDS011;9537;45.594;9.294;2022-12-18T03:25:26;16.70;;;11.17;;
18818;SDS011;9537;45.594;9.294;2022-12-18T03:26:31;16.40;;;11.30;;
18818;SDS011;9537;45.594;9.294;2022-12-18T03:27:35;16.90;;;11.37;;
18818;SDS011;9537;45.594;9.294;2022-12-18T03:28:44;16.03;;;11.10;;
18818;SDS011;9537;45.594;9.294;2022-12-18T03:29:51;16.93;;;11.33;;
18818;SDS011;9537;45.594;9.294;2022-12-18T03:31:03;16.50;;;11.47;;
18818;SDS011;9537;45.594;9.294;2022-12-18T03:32:09;15.93;;;11.07;;
18818;SDS011;9537;45.594;9.294;2022-12-18T03:33:15;13.70;;;10.23;;
18818;SDS011;9537;45.594;9.294;2022-12-18T03:34:21;15.07;;;10.97;;
18818;SDS011;9537;45.594;9.294;2022-12-18T03:35:29;15.10;;;10.70;;
18818;SDS011;9537;45.594;9.294;2022-12-18T03:36:32;15.57;;;11.27;;
18818;SDS011;9537;45.594;9.294;2022-12-18T03:37:34;15.63;;;11.93;;
18818;SDS011;9537;45.594;9.294;2022-12-18T03:38:35;16.50;;;11.83;;
18818;SDS011;9537;45.594;9.294;2022-12-18T03:39:38;18.40;;;11.30;;
18818;SDS011;9537;45.594;9.294;2022-12-18T03:40:51;15.60;;;11.30;;
18818;SDS011;9537;45.594;9.294;2022-12-18T03:42:01;15.40;;;11.00;;
18818;SDS011;9537;45.594;9.294;2022-12-18T03:43:08;14.37;;;10.53;;
18818;SDS011;9537;45.594;9.294;2022-12-18T03:44:20;17.97;;;11.53;;
18818;SDS011;9537;45.594;9.294;2022-12-18T03:45:28;14.50;;;10.27;;
18818;SDS011;9537;45.594;9.294;2022-12-18T03:46:38;16.07;;;11.23;;
18818;SDS011;9537;45.594;9.294;2022-12-18T03:47:49;15.80;;;11.30;;
18818;SDS011;9537;45.594;9.294;2022-12-18T03:49:06;16.47;;;11.70;;
18818;SDS011;9537;45.594;9.294;2022-12-18T03:50:13;19.13;;;11.67;;
18818;SDS011;9537;45.594;9.294;2022-12-18T03:51:18;16.87;;;11.23;;
18818;SDS011;9537;45.594;9.294;2022-12-18T03:52:26;14.80;;;11.67;;
18818;SDS011;9537;45.594;9.294;2022-12-18T03:53:35;17.63;;;11.73;;
18818;SDS011;9537;45.594;9.294;2022-12-18T03:54:42;15.00;;;11.13;;
18818;SDS011;9537;45.594;9.294;2022-12-18T03:55:46;17.00;;;12.47;;
18818;SDS011;9537;45.594;9.294;2022-12-18T03:56:51;16.07;;;11.20;;
18818;SDS011;9537;45.594;9.294;2022-12-18T03:57:59;14.40;;;10.93;;
18818;SDS011;9537;45.594;9.294;2022-12-18T03:59:04;14.50;;;11.00;;
18818;SDS011;9537;45.594;9.294;2022-12-18T04:00:09;14.47;;;10.70;;
18818;SDS011;9537;45.594;9.294;2022-12-18T04:01:14;13.13;;;10.90;;
18818;SDS011;9537;45.594;9.294;2022-12-18T04:02:18;14.47;;;11.07;;
18818;SDS011;9537;45.594;9.294;2022-12-18T04:03:21;15.53;;;11.13;;
18818;SDS011;9537;45.594;9.294;2022-12-18T04:04:25;15.63;;;11.10;;
18818;SDS011;9537;45.594;9.294;2022-12-18T04:05:29;14.87;;;10.87;;
18818;SDS011;9537;45.594;9.294;2022-12-18T04:06:34;17.47;;;11.97;;
18818;SDS011;9537;45.594;9.294;2022-12-18T04:07:36;15.57;;;11.33;;
18818;SDS011;9537;45.594;9.294;2022-12-18T04:08:40;15.90;;;10.77;;
18818;SDS011;9537;45.594;9.294;2022-12-18T04:09:42;13.30;;;10.70;;
18818;SDS011;9537;45.594;9.294;2022-12-18T04:10:47;16.33;;;10.83;;
18818;SDS011;9537;45.594;9.294;2022-12-18T04:11:48;16.63;;;11.77;;
18818;SDS011;9537;45.594;9.294;2022-12-18T04:12:50;14.37;;;10.83;;
18818;SDS011;9537;45.594;9.294;2022-12-18T04:13:56;15.20;;;10.43;;
18818;SDS011;9537;45.594;9.294;2022-12-18T04:14:58;15.43;;;10.93;;
18818;SDS011;9537;45.594;9.294;2022-12-18T04:16:01;14.10;;;10.67;;
18818;SDS011;9537;45.594;9.294;2022-12-18T04:17:03;14.33;;;10.63;;
18818;SDS011;9537;45.594;9.294;2022-12-18T04:18:04;15.30;;;11.03;;
18818;SDS011;9537;45.594;9.294;2022-12-18T04:19:06;12.87;;;10.23;;
18818;SDS011;9537;45.594;9.294;2022-12-18T04:20:08;13.30;;;10.73;;
18818;SDS011;9537;45.594;9.294;2022-12-18T04:21:11;16.00;;;11.20;;
18818;SDS011;9537;45.594;9.294;2022-12-18T04:22:11;16.33;;;10.73;;
18818;SDS011;9537;45.594;9.294;2022-12-18T04:23:13;14.17;;;11.30;;
18818;SDS011;9537;45.594;9.294;2022-12-18T04:24:14;15.07;;;11.70;;
18818;SDS011;9537;45.594;9.294;2022-12-18T04:25:16;14.57;;;10.97;;
18818;SDS011;9537;45.594;9.294;2022-12-18T04:26:17;16.27;;;11.27;;
18818;SDS011;9537;45.594;9.294;2022-12-18T04:27:20;14.63;;;10.90;;
18818;SDS011;9537;45.594;9.294;2022-12-18T04:28:21;14.87;;;10.80;;
18818;SDS011;9537;45.594;9.294;2022-12-18T04:29:23;17.60;;;11.97;;
18818;SDS011;9537;45.594;9.294;2022-12-18T04:30:24;15.67;;;11.57;;
18818;SDS011;9537;45.594;9.294;2022-12-18T04:31:28;13.40;;;10.33;;
18818;SDS011;9537;45.594;9.294;2022-12-18T04:32:29;14.60;;;10.53;;
18818;SDS011;9537;45.594;9.294;2022-12-18T04:33:31;14.83;;;10.33;;
18818;SDS011;9537;45.594;9.294;2022-12-18T04:34:32;15.57;;;10.53;;
18818;SDS011;9537;45.594;9.294;2022-12-18T04:35:34;14.40;;;10.70;;
18818;SDS011;9537;45.594;9.294;2022-12-18T04:36:35;13.27;;;10.00;;
18818;SDS011;9537;45.594;9.294;2022-12-18T04:37:37;11.80;;;9.33;;
18818;SDS011;9537;45.594;9.294;2022-12-18T04:38:38;13.53;;;10.20;;
18818;SDS011;9537;45.594;9.294;2022-12-18T04:39:40;12.97;;;10.10;;
18818;SDS011;9537;45.594;9.294;2022-12-18T04:40:41;14.23;;;9.63;;
18818;SDS011;9537;45.594;9.294;2022-12-18T04:41:43;12.73;;;10.03;;
18818;SDS011;9537;45.594;9.294;2022-12-18T04:42:44;14.00;;;10.43;;
18818;SDS011;9537;45.594;9.294;2022-12-18T04:43:46;13.03;;;10.20;;
18818;SDS011;9537;45.594;9.294;2022-12-18T04:44:47;14.17;;;10.50;;
18818;SDS011;9537;45.594;9.294;2022-12-18T04:45:49;12.47;;;10.13;;
18818;SDS011;9537;45.594;9.294;2022-12-18T04:46:52;14.13;;;10.90;;
18818;SDS011;9537;45.594;9.294;2022-12-18T04:47:54;17.70;;;11.67;;
18818;SDS011;9537;45.594;9.294;2022-12-18T04:48:55;13.40;;;10.73;;
18818;SDS011;9537;45.594;9.294;2022-12-18T04:49:57;13.90;;;10.57;;
18818;SDS011;9537;45.594;9.294;2022-12-18T04:50:58;13.00;;;9.97;;
18818;SDS011;9537;45.594;9.294;2022-12-18T04:52:00;13.67;;;10.70;;
18818;SDS011;9537;45.594;9.294;2022-12-18T04:53:01;12.77;;;10.90;;
18818;SDS011;9537;45.594;9.294;2022-12-18T04:54:02;17.63;;;10.83;;
18818;SDS011;9537;45.594;9.294;2022-12-18T04:55:04;14.27;;;10.67;;
18818;SDS011;9537;45.594;9.294;2022-12-18T04:56:06;10.83;;;9.23;;
18818;SDS011;9537;45.594;9.294;2022-12-18T04:57:10;15.33;;;10.97;;
18818;SDS011;9537;45.594;9.294;2022-12-18T04:58:11;16.53;;;10.90;;
18818;SDS011;9537;45.594;9.294;2022-12-18T04:59:13;13.13;;;10.80;;
18818;SDS011;9537;45.594;9.294;2022-12-18T05:00:14;15.37;;;10.67;;
18818;SDS011;9537;45.594;9.294;2022-12-18T05:01:17;12.60;;;10.23;;
18818;SDS011;9537;45.594;9.294;2022-12-18T05:02:20;11.93;;;10.13;;
18818;SDS011;9537;45.594;9.294;2022-12-18T05:03:22;13.37;;;10.83;;
18818;SDS011;9537;45.594;9.294;2022-12-18T05:04:24;13.30;;;11.00;;
18818;SDS011;9537;45.594;9.294;2022-12-18T05:05:26;15.50;;;10.70;;
18818;SDS011;9537;45.594;9.294;2022-12-18T05:06:27;14.17;;;10.70;;
18818;SDS011;9537;45.594;9.294;2022-12-18T05:07:29;17.30;;;11.70;;
18818;SDS011;9537;45.594;9.294;2022-12-18T05:08:31;16.63;;;11.30;;
18818;SDS011;9537;45.594;9.294;2022-12-18T05:09:33;13.27;;;10.13;;
18818;SDS011;9537;45.594;9.294;2022-12-18T05:10:34;15.60;;;11.33;;
18818;SDS011;9537;45.594;9.294;2022-12-18T05:11:36;14.43;;;11.27;;
18818;SDS011;9537;45.594;9.294;2022-12-18T05:12:37;13.90;;;10.10;;
18818;SDS011;9537;45.594;9.294;2022-12-18T05:13:58;15.63;;;10.03;;
18818;SDS011;9537;45.594;9.294;2022-12-18T05:14:59;13.50;;;9.90;;
18818;SDS011;9537;45.594;9.294;2022-12-18T05:16:01;13.67;;;10.80;;
18818;SDS011;9537;45.594;9.294;2022-12-18T05:17:02;15.17;;;11.33;;
18818;SDS011;9537;45.594;9.294;2022-12-18T05:18:06;14.00;;;11.13;;
18818;SDS011;9537;45.594;9.294;2022-12-18T05:19:08;13.50;;;10.73;;
18818;SDS011;9537;45.594;9.294;2022-12-18T05:20:10;14.90;;;11.20;;
18818;SDS011;9537;45.594;9.294;2022-12-18T05:21:11;14.43;;;10.97;;
18818;SDS011;9537;45.594;9.294;2022-12-18T05:22:13;16.53;;;11.10;;
18818;SDS011;9537;45.594;9.294;2022-12-18T05:23:14;15.37;;;11.33;;
18818;SDS011;9537;45.594;9.294;2022-12-18T05:24:16;15.47;;;11.27;;
18818;SDS011;9537;45.594;9.294;2022-12-18T05:25:17;16.23;;;11.63;;
18818;SDS011;9537;45.594;9.294;2022-12-18T05:26:20;18.33;;;11.67;;
18818;SDS011;9537;45.594;9.294;2022-12-18T05:27:21;16.90;;;11.87;;
18818;SDS011;9537;45.594;9.294;2022-12-18T05:28:24;16.20;;;11.10;;
18818;SDS011;9537;45.594;9.294;2022-12-18T05:29:26;17.50;;;11.80;;
18818;SDS011;9537;45.594;9.294;2022-12-18T05:30:29;16.90;;;11.77;;
18818;SDS011;9537;45.594;9.294;2022-12-18T05:31:30;17.73;;;12.53;;
18818;SDS011;9537;45.594;9.294;2022-12-18T05:32:32;19.40;;;13.40;;
18818;SDS011;9537;45.594;9.294;2022-12-18T05:33:34;20.93;;;13.70;;
18818;SDS011;9537;45.594;9.294;2022-12-18T05:34:36;21.33;;;13.23;;
18818;SDS011;9537;45.594;9.294;2022-12-18T05:35:37;19.07;;;12.90;;
18818;SDS011;9537;45.594;9.294;2022-12-18T05:36:39;19.43;;;13.50;;
18818;SDS011;9537;45.594;9.294;2022-12-18T05:37:40;15.43;;;11.37;;
18818;SDS011;9537;45.594;9.294;2022-12-18T05:38:43;17.33;;;11.73;;
18818;SDS011;9537;45.594;9.294;2022-12-18T05:39:43;14.40;;;10.73;;
18818;SDS011;9537;45.594;9.294;2022-12-18T05:40:46;15.80;;;11.27;;
18818;SDS011;9537;45.594;9.294;2022-12-18T05:41:48;14.83;;;11.67;;
18818;SDS011;9537;45.594;9.294;2022-12-18T05:42:50;14.77;;;11.33;;
18818;SDS011;9537;45.594;9.294;2022-12-18T05:43:51;16.63;;;11.33;;
18818;SDS011;9537;45.594;9.294;2022-12-18T05:44:53;16.90;;;12.30;;
18818;SDS011;9537;45.594;9.294;2022-12-18T05:45:54;16.73;;;12.23;;
18818;SDS011;9537;45.594;9.294;2022-12-18T05:46:57;19.17;;;12.27;;
18818;SDS011;9537;45.594;9.294;2022-12-18T05:47:58;17.83;;;12.57;;
18818;SDS011;9537;45.594;9.294;2022-12-18T05:49:02;16.60;;;11.67;;
18818;SDS011;9537;45.594;9.294;2022-12-18T05:50:03;16.53;;;11.57;;
18818;SDS011;9537;45.594;9.294;2022-12-18T05:51:07;14.93;;;10.90;;
18818;SDS011;9537;45.594;9.294;2022-12-18T05:52:10;15.03;;;10.90;;
18818;SDS011;9537;45.594;9.294;2022-12-18T05:53:12;14.30;;;10.57;;
18818;SDS011;9537;45.594;9.294;2022-12-18T05:54:13;17.73;;;10.33;;
18818;SDS011;9537;45.594;9.294;2022-12-18T05:55:15;15.70;;;11.23;;
18818;SDS011;9537;45.594;9.294;2022-12-18T05:56:17;15.97;;;10.90;;
18818;SDS011;9537;45.594;9.294;2022-12-18T05:57:21;15.33;;;11.03;;
18818;SDS011;9537;45.594;9.294;2022-12-18T05:58:22;15.73;;;10.93;;
18818;SDS011;9537;45.594;9.294;2022-12-18T05:59:24;15.63;;;11.43;;
18818;SDS011;9537;45.594;9.294;2022-12-18T06:00:25;16.60;;;11.37;;
18818;SDS011;9537;45.594;9.294;2022-12-18T06:01:27;17.27;;;11.40;;
18818;SDS011;9537;45.594;9.294;2022-12-18T06:02:28;16.37;;;11.63;;
18818;SDS011;9537;45.594;9.294;2022-12-18T06:03:30;21.43;;;12.57;;
18818;SDS011;9537;45.594;9.294;2022-12-18T06:04:33;20.77;;;12.63;;
18818;SDS011;9537;45.594;9.294;2022-12-18T06:05:36;17.30;;;11.03;;
18818;SDS011;9537;45.594;9.294;2022-12-18T06:06:38;16.30;;;10.73;;
18818;SDS011;9537;45.594;9.294;2022-12-18T06:07:40;15.10;;;10.87;;
18818;SDS011;9537;45.594;9.294;2022-12-18T06:08:41;16.50;;;12.10;;
18818;SDS011;9537;45.594;9.294;2022-12-18T06:09:43;16.40;;;11.23;;
18818;SDS011;9537;45.594;9.294;2022-12-18T06:10:49;18.73;;;11.37;;
18818;SDS011;9537;45.594;9.294;2022-12-18T06:11:53;16.33;;;11.13;;
18818;SDS011;9537;45.594;9.294;2022-12-18T06:12:54;18.37;;;12.03;;
18818;SDS011;9537;45.594;9.294;2022-12-18T06:13:56;18.23;;;11.90;;
18818;SDS011;9537;45.594;9.294;2022-12-18T06:14:57;20.20;;;11.80;;
18818;SDS011;9537;45.594;9.294;2022-12-18T06:16:01;19.10;;;13.03;;
18818;SDS011;9537;45.594;9.294;2022-12-18T06:17:02;18.73;;;12.13;;
18818;SDS011;9537;45.594;9.294;2022-12-18T06:18:05;17.07;;;11.40;;
18818;SDS011;9537;45.594;9.294;2022-12-18T06:19:06;21.23;;;13.40;;
18818;SDS011;9537;45.594;9.294;2022-12-18T06:20:09;19.47;;;12.50;;